createdAt,value
2023-05-15T00:00:28.523Z,66.61
2023-05-15T00:01:28.503Z,66.70
2023-05-15T00:02:28.586Z,66.41
2023-05-15T00:03:28.604Z,66.99
2023-05-15T00:04:28.572Z,67.08
2023-05-15T00:05:28.494Z,66.99
2023-05-15T00:06:28.492Z,67.27
2023-05-15T00:07:28.499Z,66.99
2023-05-15T00:08:28.489Z,67.27
2023-05-15T00:09:28.491Z,66.99
2023-05-15T00:10:28.495Z,67.37
2023-05-15T00:11:28.483Z,67.18
2023-05-15T00:12:28.509Z,67.27
2023-05-15T00:13:28.482Z,67.27
2023-05-15T00:14:28.477Z,67.18
2023-05-15T00:15:28.471Z,67.66
2023-05-15T00:16:28.538Z,67.37
2023-05-15T00:17:28.491Z,67.76
2023-05-15T00:18:28.534Z,67.18
2023-05-15T00:19:28.464Z,67.37
2023-05-15T00:20:28.462Z,67.37
2023-05-15T00:21:28.465Z,67.56
2023-05-15T00:22:28.467Z,67.47
2023-05-15T00:23:28.462Z,67.47
2023-05-15T00:24:28.468Z,67.47
2023-05-15T00:25:28.456Z,67.72
2023-05-15T00:26:28.466Z,67.53
2023-05-15T00:27:28.447Z,68.01
2023-05-15T00:28:28.504Z,68.01
2023-05-15T00:29:28.447Z,68.10
2023-05-15T00:30:28.454Z,67.91
2023-05-15T00:31:28.483Z,68.01
2023-05-15T00:32:28.510Z,68.01
2023-05-15T00:33:28.442Z,67.91
2023-05-15T00:34:28.437Z,68.58
2023-05-15T00:35:28.442Z,68.20
2023-05-15T00:36:28.444Z,68.49
2023-05-15T00:37:28.447Z,68.68
2023-05-15T00:38:28.438Z,68.68
2023-05-15T00:39:28.426Z,69.06
2023-05-15T00:40:28.436Z,69.06
2023-05-15T00:41:28.444Z,69.06
2023-05-15T00:42:28.433Z,68.87
2023-05-15T00:43:28.433Z,68.87
2023-05-15T00:44:28.458Z,68.77
2023-05-15T00:45:28.467Z,68.29
2023-05-15T00:46:28.472Z,68.01
2023-05-15T00:47:28.452Z,67.91
2023-05-15T00:48:28.427Z,67.91
2023-05-15T00:49:28.412Z,68.20
2023-05-15T00:50:28.434Z,68.49
2023-05-15T00:51:28.424Z,68.68
2023-05-15T00:52:28.410Z,68.96
2023-05-15T00:53:28.527Z,69.15
2023-05-15T00:54:28.417Z,68.87
2023-05-15T00:55:28.407Z,69.06
2023-05-15T00:56:28.408Z,68.96
2023-05-15T00:57:28.404Z,69.06
2023-05-15T00:58:28.391Z,69.25
2023-05-15T00:59:28.402Z,68.87
2023-05-15T01:00:28.400Z,68.96
2023-05-15T01:01:28.472Z,69.06
2023-05-15T01:02:28.460Z,68.96
2023-05-15T01:03:28.524Z,69.15
2023-05-15T01:04:28.402Z,69.06
2023-05-15T01:05:28.404Z,69.21
2023-05-15T01:06:28.386Z,69.25
2023-05-15T01:07:28.398Z,69.15
2023-05-15T01:08:28.368Z,69.50
2023-05-15T01:09:28.375Z,69.50
2023-05-15T01:10:28.363Z,69.50
2023-05-15T01:11:28.363Z,69.98
2023-05-15T01:12:28.365Z,69.89
2023-05-15T01:13:28.366Z,70.07
2023-05-15T01:14:28.377Z,70.07
2023-05-15T01:15:28.363Z,70.07
2023-05-15T01:16:28.352Z,69.89
2023-05-15T01:17:28.385Z,69.70
2023-05-15T01:18:28.463Z,69.89
2023-05-15T01:19:28.441Z,69.79
2023-05-15T01:20:28.346Z,69.89
2023-05-15T01:21:28.343Z,70.46
2023-05-15T01:22:28.336Z,70.17
2023-05-15T01:23:28.420Z,70.17
2023-05-15T01:24:28.338Z,70.46
2023-05-15T01:25:28.334Z,70.17
2023-05-15T01:26:28.351Z,70.36
2023-05-15T01:27:28.339Z,70.46
2023-05-15T01:28:28.359Z,70.56
2023-05-15T01:29:28.335Z,70.84
2023-05-15T01:30:28.330Z,70.27
2023-05-15T01:31:28.400Z,71.03
2023-05-15T01:32:28.388Z,70.94
2023-05-15T01:33:28.319Z,70.75
2023-05-15T01:34:28.421Z,71.13
2023-05-15T01:35:28.470Z,71.13
2023-05-15T01:36:28.308Z,70.94
2023-05-15T01:37:28.318Z,71.22
2023-05-15T01:38:28.304Z,71.22
2023-05-15T01:39:28.308Z,71.32
2023-05-15T01:40:28.311Z,71.51
2023-05-15T01:41:28.343Z,71.61
2023-05-15T01:42:28.309Z,71.70
2023-05-15T01:43:28.294Z,71.70
2023-05-15T01:44:28.305Z,71.80
2023-05-15T01:45:28.280Z,71.80
2023-05-15T01:46:30.971Z,71.99
2023-05-15T01:47:28.320Z,72.37
2023-05-15T01:48:28.285Z,72.18
2023-05-15T01:49:28.294Z,72.56
2023-05-15T01:50:28.282Z,72.66
2023-05-15T01:51:28.282Z,72.47
2023-05-15T01:52:28.291Z,72.85
2023-05-15T01:53:28.270Z,72.75
2023-05-15T01:54:28.269Z,72.56
2023-05-15T01:55:28.396Z,72.66
2023-05-15T01:56:28.253Z,72.56
2023-05-15T01:57:28.253Z,72.75
2023-05-15T01:58:28.251Z,72.37
2023-05-15T01:59:28.261Z,72.56
2023-05-15T02:00:28.255Z,72.75
2023-05-15T02:01:28.278Z,73.43
2023-05-15T02:02:28.309Z,73.33
2023-05-15T02:03:28.366Z,72.94
2023-05-15T02:04:28.237Z,73.14
2023-05-15T02:05:28.446Z,72.94
2023-05-15T02:06:28.223Z,73.14
2023-05-15T02:07:28.249Z,73.14
2023-05-15T02:08:28.298Z,73.33
2023-05-15T02:09:28.231Z,73.14
2023-05-15T02:10:28.234Z,72.94
2023-05-15T02:11:28.234Z,73.33
2023-05-15T02:12:28.249Z,73.14
2023-05-15T02:13:28.265Z,73.61
2023-05-15T02:14:28.238Z,73.33
2023-05-15T02:15:28.245Z,73.67
2023-05-15T02:16:28.339Z,73.77
2023-05-15T02:17:28.223Z,74.24
2023-05-15T02:18:28.243Z,73.67
2023-05-15T02:19:28.191Z,73.67
2023-05-15T02:20:28.201Z,73.96
2023-05-15T02:21:28.204Z,74.44
2023-05-15T02:22:28.213Z,74.44
2023-05-15T02:23:28.221Z,74.19
2023-05-15T02:24:28.199Z,74.34
2023-05-15T02:25:28.191Z,73.86
2023-05-15T02:26:28.179Z,74.34
2023-05-15T02:27:28.190Z,74.24
2023-05-15T02:28:28.170Z,74.09
2023-05-15T02:29:28.172Z,74.05
2023-05-15T02:30:28.176Z,74.34
2023-05-15T02:31:28.187Z,74.05
2023-05-15T02:32:28.224Z,73.86
2023-05-15T02:33:28.189Z,73.96
2023-05-15T02:34:28.208Z,73.77
2023-05-15T02:35:28.172Z,74.05
2023-05-15T02:36:28.172Z,74.05
2023-05-15T02:37:28.153Z,74.05
2023-05-15T02:38:28.145Z,74.05
2023-05-15T02:39:28.176Z,73.86
2023-05-15T02:40:28.187Z,74.15
2023-05-15T02:41:35.324Z,74.63
2023-05-15T02:43:32.146Z,74.05
2023-05-15T02:44:32.122Z,74.63
2023-05-15T02:46:25.550Z,74.73
2023-05-15T02:47:25.272Z,74.63
2023-05-15T02:49:29.756Z,74.73
2023-05-15T02:50:29.756Z,74.44
2023-05-15T02:52:22.642Z,74.24
2023-05-15T02:53:22.644Z,74.24
2023-05-15T02:55:27.046Z,74.15
2023-05-15T02:56:26.651Z,74.05
2023-05-15T02:58:19.588Z,74.73
2023-05-15T02:59:19.583Z,74.34
2023-05-15T03:01:23.642Z,74.05
2023-05-15T03:02:23.606Z,74.82
2023-05-15T03:04:27.558Z,75.59
2023-05-15T03:05:27.895Z,75.87
2023-05-15T03:07:31.555Z,75.20
2023-05-15T03:08:31.526Z,75.30
2023-05-15T03:10:35.561Z,75.59
2023-05-15T03:11:35.523Z,75.10
2023-05-15T03:13:39.515Z,74.34
2023-05-15T03:14:39.516Z,74.73
2023-05-15T03:16:43.562Z,74.53
2023-05-15T03:17:43.539Z,74.53
2023-05-15T03:19:47.467Z,74.98
2023-05-15T03:20:47.478Z,75.07
2023-05-15T03:22:40.427Z,75.16
2023-05-15T03:23:40.393Z,75.26
2023-05-15T03:25:44.396Z,74.88
2023-05-15T03:26:44.370Z,74.88
2023-05-15T03:28:48.375Z,74.82
2023-05-15T03:29:48.369Z,74.98
2023-05-15T03:31:52.458Z,74.78
2023-05-15T03:32:52.410Z,74.91
2023-05-15T03:34:56.369Z,74.98
2023-05-15T03:35:56.351Z,75.10
2023-05-15T03:36:56.370Z,75.07
2023-05-15T03:37:56.381Z,75.07
2023-05-15T03:38:56.335Z,75.07
2023-05-15T03:39:56.340Z,74.78
2023-05-15T03:40:56.330Z,74.88
2023-05-15T03:41:56.349Z,75.07
2023-05-15T03:42:56.320Z,75.16
2023-05-15T03:43:56.337Z,75.07
2023-05-15T03:44:56.349Z,74.88
2023-05-15T03:45:56.327Z,75.07
2023-05-15T03:46:56.448Z,74.88
2023-05-15T03:47:56.324Z,75.20
2023-05-15T03:48:56.313Z,75.16
2023-05-15T03:49:56.310Z,75.26
2023-05-15T03:50:56.302Z,74.98
2023-05-15T03:51:56.307Z,75.16
2023-05-15T03:52:56.310Z,75.35
2023-05-15T03:53:56.328Z,75.45
2023-05-15T03:54:56.297Z,75.54
2023-05-15T03:55:56.295Z,75.45
2023-05-15T03:56:56.293Z,75.35
2023-05-15T03:57:56.295Z,75.35
2023-05-15T03:58:56.276Z,75.35
2023-05-15T03:59:56.283Z,75.35
2023-05-15T04:00:56.272Z,75.45
2023-05-15T04:02:56.363Z,75.26
2023-05-15T04:03:56.269Z,75.16
2023-05-15T04:04:56.292Z,75.74
2023-05-15T04:05:56.295Z,76.12
2023-05-15T04:06:56.261Z,75.64
2023-05-15T04:07:56.268Z,75.16
2023-05-15T04:08:56.258Z,75.26
2023-05-15T04:09:56.267Z,75.16
2023-05-15T04:10:56.272Z,75.74
2023-05-15T04:11:56.261Z,75.26
2023-05-15T04:12:56.240Z,75.64
2023-05-15T04:13:56.251Z,76.12
2023-05-15T04:14:56.238Z,75.93
2023-05-15T04:15:56.265Z,76.31
2023-05-15T04:16:56.248Z,76.21
2023-05-15T04:17:56.301Z,76.40
2023-05-15T04:18:56.294Z,76.16
2023-05-15T04:19:56.234Z,76.45
2023-05-15T04:20:56.232Z,76.45
2023-05-15T04:21:56.224Z,76.25
2023-05-15T04:22:56.232Z,76.25
2023-05-15T04:23:56.235Z,76.06
2023-05-15T04:24:56.221Z,76.45
2023-05-15T04:25:56.218Z,75.96
2023-05-15T04:26:56.333Z,75.59
2023-05-15T04:27:56.205Z,75.30
2023-05-15T04:29:03.378Z,75.59
2023-05-15T04:29:56.197Z,75.39
2023-05-15T04:30:56.197Z,75.39
2023-05-15T04:31:56.283Z,75.49
2023-05-15T04:32:56.266Z,75.30
2023-05-15T04:33:56.188Z,75.39
2023-05-15T04:34:56.178Z,75.20
2023-05-15T04:35:56.194Z,75.20
2023-05-15T04:36:56.174Z,75.49
2023-05-15T04:37:56.197Z,75.59
2023-05-15T04:38:56.178Z,75.49
2023-05-15T04:39:56.253Z,75.20
2023-05-15T04:40:56.173Z,75.39
2023-05-15T04:41:56.165Z,76.35
2023-05-15T04:42:56.175Z,75.87
2023-05-15T04:43:56.162Z,75.87
2023-05-15T04:44:56.184Z,76.06
2023-05-15T04:45:56.174Z,75.87
2023-05-15T04:46:56.200Z,76.06
2023-05-15T04:47:56.201Z,75.96
2023-05-15T04:48:56.150Z,76.25
2023-05-15T04:49:56.159Z,76.06
2023-05-15T04:50:56.142Z,75.68
2023-05-15T04:51:56.192Z,75.96
2023-05-15T04:52:56.153Z,76.06
2023-05-15T04:53:56.140Z,76.35
2023-05-15T04:54:56.333Z,77.01
2023-05-15T04:55:56.143Z,76.64
2023-05-15T04:56:56.127Z,77.01
2023-05-15T04:57:56.133Z,77.01
2023-05-15T04:58:56.141Z,76.73
2023-05-15T04:59:56.160Z,76.64
2023-05-15T05:00:56.131Z,76.77
2023-05-15T05:01:56.184Z,76.96
2023-05-15T05:02:56.213Z,76.29
2023-05-15T05:03:56.161Z,76.48
2023-05-15T05:04:56.118Z,76.39
2023-05-15T05:05:56.104Z,76.29
2023-05-15T05:06:56.100Z,76.39
2023-05-15T05:07:56.114Z,76.86
2023-05-15T05:08:56.108Z,76.77
2023-05-15T05:09:56.098Z,76.48
2023-05-15T05:10:56.105Z,76.57
2023-05-15T05:11:56.108Z,77.25
2023-05-15T05:12:56.098Z,78.30
2023-05-15T05:13:56.102Z,78.49
2023-05-15T05:14:56.141Z,77.57
2023-05-15T05:15:56.113Z,76.90
2023-05-15T05:16:56.082Z,76.62
2023-05-15T05:17:56.115Z,75.60
2023-05-15T05:18:56.196Z,75.12
2023-05-15T05:19:56.074Z,74.16
2023-05-15T05:20:56.075Z,74.58
2023-05-15T05:21:56.096Z,73.82
2023-05-15T05:22:56.089Z,74.20
2023-05-15T05:23:56.098Z,73.91
2023-05-15T05:24:56.069Z,74.11
2023-05-15T05:25:56.116Z,72.86
2023-05-15T05:26:56.080Z,72.38
2023-05-15T05:27:56.107Z,72.38
2023-05-15T05:28:56.078Z,72.29
2023-05-15T05:29:56.121Z,72.42
2023-05-15T05:30:56.092Z,71.46
2023-05-15T05:31:56.158Z,71.27
2023-05-15T05:32:56.093Z,71.17
2023-05-15T05:33:56.076Z,70.60
2023-05-15T05:34:56.067Z,70.41
2023-05-15T05:35:56.078Z,70.21
2023-05-15T05:36:56.104Z,69.29
2023-05-15T05:37:56.098Z,69.01
2023-05-15T05:38:56.069Z,69.20
2023-05-15T05:39:56.052Z,69.77
2023-05-15T05:40:56.145Z,68.56
2023-05-15T05:41:56.064Z,68.18
2023-05-15T05:42:56.115Z,69.23
2023-05-15T05:43:56.067Z,67.89
2023-05-15T05:44:56.091Z,68.02
2023-05-15T05:45:56.087Z,67.63
2023-05-15T05:46:56.122Z,66.86
2023-05-15T05:47:56.138Z,65.75
2023-05-15T05:48:56.097Z,65.08
2023-05-15T05:49:56.107Z,63.35
2023-05-15T05:50:56.102Z,63.54
2023-05-15T05:51:56.119Z,63.25
2023-05-15T05:52:56.119Z,62.48
2023-05-15T05:53:56.165Z,62.29
2023-05-15T05:54:56.133Z,62.48
2023-05-15T05:55:56.157Z,62.96
2023-05-15T05:56:56.146Z,63.54
2023-05-15T05:57:56.148Z,63.83
2023-05-15T05:58:56.158Z,63.73
2023-05-15T05:59:56.162Z,63.35
2023-05-15T06:00:56.195Z,63.54
2023-05-15T06:01:56.289Z,63.16
2023-05-15T06:02:56.470Z,62.87
2023-05-15T06:03:56.358Z,62.87
2023-05-15T06:04:56.228Z,62.96
2023-05-15T06:05:56.240Z,63.16
2023-05-15T06:06:56.225Z,63.19
2023-05-15T06:07:56.276Z,62.99
2023-05-15T06:08:56.593Z,62.71
2023-05-15T06:09:56.282Z,62.52
2023-05-15T06:10:56.318Z,62.04
2023-05-15T06:11:56.299Z,62.23
2023-05-15T06:12:56.323Z,62.32
2023-05-15T06:13:56.233Z,62.23
2023-05-15T06:14:56.281Z,62.23
2023-05-15T06:15:56.265Z,61.84
2023-05-15T06:16:56.262Z,62.23
2023-05-15T06:17:56.299Z,62.52
2023-05-15T06:18:56.301Z,62.42
2023-05-15T06:19:56.281Z,61.75
2023-05-15T06:20:56.312Z,61.17
2023-05-15T06:21:56.285Z,61.36
2023-05-15T06:22:56.263Z,62.04
2023-05-15T06:23:56.262Z,62.23
2023-05-15T06:24:56.304Z,62.32
2023-05-15T06:25:56.327Z,62.42
2023-05-15T06:26:56.281Z,62.42
2023-05-15T06:27:56.314Z,62.04
2023-05-15T06:28:56.309Z,61.84
2023-05-15T06:29:56.345Z,61.75
2023-05-15T06:30:56.399Z,61.94
2023-05-15T06:31:56.332Z,61.27
2023-05-15T06:32:56.307Z,62.32
2023-05-15T06:33:56.313Z,62.42
2023-05-15T06:34:56.324Z,62.81
2023-05-15T06:35:56.313Z,63.19
2023-05-15T06:36:56.311Z,63.09
2023-05-15T06:37:58.371Z,62.90
2023-05-15T06:38:56.331Z,62.99
2023-05-15T06:39:56.308Z,63.38
2023-05-15T06:40:56.340Z,63.19
2023-05-15T06:41:56.352Z,63.09
2023-05-15T06:42:56.326Z,62.81
2023-05-15T06:43:56.328Z,62.35
2023-05-15T06:44:56.373Z,62.55
2023-05-15T06:45:56.321Z,62.45
2023-05-15T06:46:56.346Z,62.26
2023-05-15T06:47:57.492Z,62.74
2023-05-15T06:48:56.355Z,62.55
2023-05-15T06:49:56.372Z,62.35
2023-05-15T06:50:56.331Z,61.97
2023-05-15T06:51:56.361Z,61.20
2023-05-15T06:52:56.381Z,61.20
2023-05-15T06:53:56.361Z,61.30
2023-05-15T06:54:56.358Z,60.91
2023-05-15T06:55:56.373Z,60.91
2023-05-15T06:56:56.381Z,61.49
2023-05-15T06:57:56.434Z,62.16
2023-05-15T06:58:56.420Z,61.78
2023-05-15T06:59:56.360Z,61.49
2023-05-15T07:00:57.296Z,60.82
2023-05-15T07:01:56.491Z,60.63
2023-05-15T07:02:56.429Z,60.24
2023-05-15T07:03:56.399Z,59.86
2023-05-15T07:04:56.437Z,58.61
2023-05-15T07:05:56.544Z,58.32
2023-05-15T07:06:56.400Z,58.99
2023-05-15T07:07:56.377Z,58.99
2023-05-15T07:08:56.376Z,59.57
2023-05-15T07:09:56.391Z,59.57
2023-05-15T07:10:56.405Z,59.28
2023-05-15T07:11:56.393Z,59.66
2023-05-15T07:12:56.404Z,59.57
2023-05-15T07:13:56.415Z,59.86
2023-05-15T07:14:56.403Z,59.28
2023-05-15T07:15:56.438Z,59.19
2023-05-15T07:16:56.430Z,59.79
2023-05-15T07:17:56.622Z,58.83
2023-05-15T07:18:56.416Z,58.45
2023-05-15T07:19:56.489Z,58.64
2023-05-15T07:20:56.421Z,58.73
2023-05-15T07:21:56.421Z,58.45
2023-05-15T07:22:57.080Z,56.74
2023-05-15T07:23:56.417Z,56.07
2023-05-15T07:24:56.466Z,55.98
2023-05-15T07:25:56.462Z,55.88
2023-05-15T07:26:58.516Z,55.40
2023-05-15T07:27:56.480Z,55.33
2023-05-15T07:28:56.506Z,55.43
2023-05-15T07:29:56.462Z,55.43
2023-05-15T07:30:56.524Z,55.04
2023-05-15T07:31:56.526Z,54.17
2023-05-15T07:32:56.516Z,52.92
2023-05-15T07:33:56.459Z,52.73
2023-05-15T07:34:56.499Z,53.11
2023-05-15T07:35:56.521Z,52.83
2023-05-15T07:36:56.504Z,52.89
2023-05-15T07:37:56.598Z,53.96
2023-05-15T07:38:56.495Z,54.63
2023-05-15T07:39:56.602Z,54.63
2023-05-15T07:40:56.543Z,55.01
2023-05-15T07:41:56.540Z,55.01
2023-05-15T07:42:56.540Z,53.86
2023-05-15T07:43:56.519Z,54.63
2023-05-15T07:44:56.571Z,54.50
2023-05-15T07:45:56.536Z,54.14
2023-05-15T07:46:56.566Z,53.35
2023-05-15T07:47:56.667Z,52.77
2023-05-15T07:48:56.612Z,52.68
2023-05-15T07:49:56.551Z,53.16
2023-05-15T07:50:56.536Z,52.36
2023-05-15T07:51:56.548Z,52.84
2023-05-15T07:52:56.550Z,53.23
2023-05-15T07:53:56.603Z,53.23
2023-05-15T07:54:56.560Z,53.61
2023-05-15T07:55:56.571Z,53.70
2023-05-15T07:56:56.568Z,53.61
2023-05-15T07:57:56.585Z,53.87
2023-05-15T07:58:56.629Z,54.16
2023-05-15T07:59:56.557Z,55.02
2023-05-15T08:00:56.559Z,54.74
2023-05-15T08:01:56.610Z,54.74
2023-05-15T08:02:56.646Z,55.12
2023-05-15T08:03:56.700Z,54.96
2023-05-15T08:04:56.677Z,54.93
2023-05-15T08:05:56.584Z,54.55
2023-05-15T08:06:56.577Z,54.74
2023-05-15T08:07:56.600Z,54.35
2023-05-15T08:08:56.595Z,54.74
2023-05-15T08:09:56.726Z,55.02
2023-05-15T08:10:56.592Z,55.51
2023-05-15T08:11:56.592Z,55.41
2023-05-15T08:12:56.596Z,55.02
2023-05-15T08:13:56.635Z,53.30
2023-05-15T08:14:56.581Z,53.78
2023-05-15T08:15:56.663Z,54.16
2023-05-15T08:16:56.605Z,54.45
2023-05-15T08:17:56.657Z,54.74
2023-05-15T08:18:56.668Z,54.93
2023-05-15T08:19:56.648Z,54.83
2023-05-15T08:20:56.650Z,54.45
2023-05-15T08:21:56.605Z,54.45
2023-05-15T08:22:56.600Z,54.55
2023-05-15T08:23:56.730Z,54.74
2023-05-15T08:24:56.628Z,54.74
2023-05-15T08:25:56.640Z,54.55
2023-05-15T08:26:56.603Z,54.55
2023-05-15T08:27:56.598Z,54.25
2023-05-15T08:28:56.618Z,53.87
2023-05-15T08:29:56.652Z,53.30
2023-05-15T08:30:56.674Z,52.81
2023-05-15T08:31:56.683Z,53.11
2023-05-15T08:32:56.664Z,53.11
2023-05-15T08:33:56.634Z,53.20
2023-05-15T08:34:56.630Z,52.81
2023-05-15T08:35:56.679Z,53.20
2023-05-15T08:36:56.626Z,53.49
2023-05-15T08:37:56.618Z,53.97
2023-05-15T08:38:56.657Z,53.42
2023-05-15T08:39:56.635Z,53.42
2023-05-15T08:40:56.630Z,53.78
2023-05-15T08:41:56.662Z,54.35
2023-05-15T08:42:56.629Z,53.87
2023-05-15T08:43:56.629Z,53.39
2023-05-15T08:44:56.646Z,53.11
2023-05-15T08:45:56.652Z,52.43
2023-05-15T08:46:56.667Z,53.01
2023-05-15T08:47:56.672Z,53.30
2023-05-15T08:48:56.679Z,53.49
2023-05-15T08:49:56.642Z,54.06
2023-05-15T08:50:56.681Z,53.58
2023-05-15T08:51:56.669Z,52.34
2023-05-15T08:52:56.672Z,52.72
2023-05-15T08:53:56.651Z,53.11
2023-05-15T08:54:56.631Z,53.49
2023-05-15T08:55:56.657Z,53.49
2023-05-15T08:56:56.648Z,53.87
2023-05-15T08:57:56.652Z,53.20
2023-05-15T08:58:56.654Z,52.72
2023-05-15T08:59:56.743Z,52.91
2023-05-15T09:00:56.684Z,53.11
2023-05-15T09:01:56.725Z,53.39
2023-05-15T09:02:56.741Z,53.68
2023-05-15T09:03:56.687Z,54.45
2023-05-15T09:04:56.645Z,53.58
2023-05-15T09:05:56.670Z,53.78
2023-05-15T09:06:56.661Z,53.97
2023-05-15T09:07:56.649Z,54.25
2023-05-15T09:08:56.656Z,54.45
2023-05-15T09:09:56.652Z,54.74
2023-05-15T09:10:56.692Z,54.16
2023-05-15T09:11:56.664Z,53.97
2023-05-15T09:12:56.658Z,54.16
2023-05-15T09:13:56.693Z,53.68
2023-05-15T09:14:56.753Z,54.45
2023-05-15T09:15:56.678Z,54.45
2023-05-15T09:16:56.754Z,54.83
2023-05-15T09:17:56.712Z,54.55
2023-05-15T09:18:56.732Z,54.35
2023-05-15T09:19:56.670Z,54.35
2023-05-15T09:20:56.669Z,55.02
2023-05-15T09:21:56.684Z,55.79
2023-05-15T09:22:56.661Z,55.99
2023-05-15T09:23:56.690Z,55.22
2023-05-15T09:24:56.663Z,55.51
2023-05-15T09:25:56.720Z,55.32
2023-05-15T09:26:56.660Z,55.60
2023-05-15T09:27:56.670Z,54.93
2023-05-15T09:28:56.672Z,54.83
2023-05-15T09:29:56.750Z,54.35
2023-05-15T09:30:56.681Z,53.97
2023-05-15T09:31:56.698Z,53.68
2023-05-15T09:32:56.752Z,54.25
2023-05-15T09:33:56.686Z,54.93
2023-05-15T09:34:56.665Z,55.12
2023-05-15T09:35:56.664Z,56.37
2023-05-15T09:36:56.693Z,56.56
2023-05-15T09:37:56.683Z,57.14
2023-05-15T09:38:56.684Z,56.66
2023-05-15T09:39:56.679Z,56.56
2023-05-15T09:40:56.682Z,56.66
2023-05-15T09:41:56.677Z,56.27
2023-05-15T09:42:56.669Z,55.79
2023-05-15T09:43:56.668Z,55.02
2023-05-15T09:44:56.672Z,55.41
2023-05-15T09:45:56.680Z,55.41
2023-05-15T09:46:56.723Z,55.32
2023-05-15T09:47:56.710Z,55.32
2023-05-15T09:48:56.675Z,55.41
2023-05-15T09:49:56.691Z,55.22
2023-05-15T09:50:56.697Z,55.02
2023-05-15T09:51:56.675Z,55.22
2023-05-15T09:52:56.686Z,55.51
2023-05-15T09:53:56.697Z,54.64
2023-05-15T09:54:56.674Z,54.83
2023-05-15T09:55:56.682Z,55.22
2023-05-15T09:56:56.680Z,55.02
2023-05-15T09:57:56.681Z,55.51
2023-05-15T09:58:56.843Z,56.08
2023-05-15T09:59:56.702Z,55.32
2023-05-15T10:00:56.693Z,55.51
2023-05-15T10:01:56.705Z,54.45
2023-05-15T10:02:56.726Z,53.87
2023-05-15T10:03:56.685Z,53.87
2023-05-15T10:04:56.736Z,53.39
2023-05-15T10:05:56.705Z,53.49
2023-05-15T10:06:56.701Z,53.11
2023-05-15T10:07:56.707Z,53.01
2023-05-15T10:08:56.738Z,53.11
2023-05-15T10:09:56.693Z,53.01
2023-05-15T10:10:56.689Z,53.20
2023-05-15T10:11:56.722Z,52.91
2023-05-15T10:12:56.688Z,52.91
2023-05-15T10:13:56.716Z,52.91
2023-05-15T10:14:56.689Z,53.30
2023-05-15T10:15:56.728Z,53.87
2023-05-15T10:16:56.705Z,53.68
2023-05-15T10:17:56.727Z,53.42
2023-05-15T10:18:56.787Z,53.01
2023-05-15T10:19:58.755Z,53.30
2023-05-15T10:20:56.713Z,53.32
2023-05-15T10:21:56.703Z,53.70
2023-05-15T10:22:56.714Z,52.94
2023-05-15T10:23:56.739Z,53.03
2023-05-15T10:24:56.739Z,53.03
2023-05-15T10:25:56.693Z,53.13
2023-05-15T10:26:56.730Z,53.23
2023-05-15T10:27:56.710Z,53.13
2023-05-15T10:28:56.728Z,53.13
2023-05-15T10:29:56.711Z,52.94
2023-05-15T10:30:56.729Z,53.42
2023-05-15T10:31:56.831Z,53.61
2023-05-15T10:32:56.807Z,54.19
2023-05-15T10:33:56.728Z,54.57
2023-05-15T10:34:56.726Z,54.96
2023-05-15T10:35:56.724Z,54.47
2023-05-15T10:36:56.734Z,54.57
2023-05-15T10:37:56.720Z,54.77
2023-05-15T10:38:56.727Z,55.05
2023-05-15T10:39:56.725Z,55.24
2023-05-15T10:41:09.132Z,55.63
2023-05-15T10:41:56.715Z,55.53
2023-05-15T10:42:56.725Z,55.73
2023-05-15T10:43:56.744Z,56.01
2023-05-15T10:44:56.722Z,56.30
2023-05-15T10:45:56.722Z,56.11
2023-05-15T10:46:56.777Z,56.01
2023-05-15T10:47:56.846Z,55.73
2023-05-15T10:48:56.738Z,55.24
2023-05-15T10:49:56.727Z,54.47
2023-05-15T10:50:56.739Z,54.38
2023-05-15T10:51:56.792Z,53.32
2023-05-15T10:52:56.751Z,52.75
2023-05-15T10:53:56.768Z,51.40
2023-05-15T10:54:56.749Z,51.40
2023-05-15T10:55:56.826Z,51.31
2023-05-15T10:56:56.733Z,51.31
2023-05-15T10:57:56.734Z,52.46
2023-05-15T10:58:56.745Z,52.55
2023-05-15T10:59:56.759Z,52.75
2023-05-15T11:00:56.749Z,53.23
2023-05-15T11:01:56.738Z,53.23
2023-05-15T11:02:57.001Z,53.80
2023-05-15T11:03:56.806Z,53.30
2023-05-15T11:04:56.754Z,53.70
2023-05-15T11:05:56.785Z,54.09
2023-05-15T11:06:56.751Z,54.09
2023-05-15T11:07:56.779Z,54.28
2023-05-15T11:08:56.749Z,54.19
2023-05-15T11:09:56.789Z,54.00
2023-05-15T11:10:56.750Z,54.77
2023-05-15T11:11:56.749Z,54.96
2023-05-15T11:12:56.757Z,55.53
2023-05-15T11:13:56.753Z,54.96
2023-05-15T11:14:56.756Z,54.57
2023-05-15T11:15:56.772Z,54.38
2023-05-15T11:16:56.784Z,54.47
2023-05-15T11:17:56.799Z,54.67
2023-05-15T11:18:56.830Z,54.96
2023-05-15T11:19:56.764Z,55.15
2023-05-15T11:20:56.753Z,55.91
2023-05-15T11:21:56.783Z,56.30
2023-05-15T11:22:56.751Z,57.26
2023-05-15T11:23:56.772Z,57.84
2023-05-15T11:24:56.771Z,58.13
2023-05-15T11:25:56.792Z,58.32
2023-05-15T11:26:59.147Z,58.22
2023-05-15T11:27:56.789Z,58.13
2023-05-15T11:28:56.774Z,57.93
2023-05-15T11:29:56.771Z,58.22
2023-05-15T11:30:56.785Z,58.54
2023-05-15T11:31:56.772Z,58.22
2023-05-15T11:32:56.799Z,58.15
2023-05-15T11:33:56.797Z,57.20
2023-05-15T11:34:56.783Z,57.00
2023-05-15T11:35:56.771Z,57.10
2023-05-15T11:36:56.786Z,56.43
2023-05-15T11:37:56.810Z,56.43
2023-05-15T11:38:56.789Z,57.00
2023-05-15T11:39:56.793Z,56.52
2023-05-15T11:40:56.806Z,56.62
2023-05-15T11:41:57.463Z,56.33
2023-05-15T11:42:56.791Z,55.56
2023-05-15T11:43:56.785Z,53.54
2023-05-15T11:44:56.792Z,53.16
2023-05-15T11:45:56.791Z,52.58
2023-05-15T11:46:56.868Z,51.43
2023-05-15T11:47:56.822Z,51.04
2023-05-15T11:48:58.315Z,50.66
2023-05-15T11:49:56.789Z,50.85
2023-05-15T11:50:56.799Z,50.85
2023-05-15T11:51:56.801Z,50.27
2023-05-15T11:52:56.826Z,50.56
2023-05-15T11:53:56.826Z,51.04
2023-05-15T11:54:56.813Z,51.14
2023-05-15T11:55:56.818Z,51.23
2023-05-15T11:56:56.809Z,51.43
2023-05-15T11:57:56.802Z,50.85
2023-05-15T11:58:56.823Z,50.56
2023-05-15T11:59:56.817Z,50.59
2023-05-15T12:00:56.817Z,50.59
2023-05-15T12:01:56.819Z,50.68
2023-05-15T12:02:56.928Z,50.10
2023-05-15T12:03:57.065Z,50.30
2023-05-15T12:04:56.899Z,49.63
2023-05-15T12:06:00.030Z,49.82
2023-05-15T12:06:56.831Z,49.53
2023-05-15T12:07:56.831Z,50.20
2023-05-15T12:08:56.846Z,50.20
2023-05-15T12:09:56.862Z,50.59
2023-05-15T12:10:56.879Z,50.01
2023-05-15T12:11:56.863Z,50.18
2023-05-15T12:12:56.862Z,50.37
2023-05-15T12:13:56.843Z,50.37
2023-05-15T12:14:56.871Z,50.66
2023-05-15T12:15:56.895Z,50.95
2023-05-15T12:16:56.968Z,50.68
2023-05-15T12:17:56.894Z,50.46
2023-05-15T12:18:56.974Z,50.56
2023-05-15T12:19:56.855Z,50.66
2023-05-15T12:20:56.877Z,50.66
2023-05-15T12:21:56.859Z,51.26
2023-05-15T12:22:56.866Z,50.87
2023-05-15T12:24:07.604Z,50.87
2023-05-15T12:24:56.897Z,51.07
2023-05-15T12:25:56.867Z,50.97
2023-05-15T12:26:57.727Z,50.97
2023-05-15T12:27:56.895Z,50.49
2023-05-15T12:28:56.862Z,50.49
2023-05-15T12:29:56.931Z,50.30
2023-05-15T12:30:56.878Z,48.85
2023-05-15T12:31:56.901Z,49.05
2023-05-15T12:32:56.979Z,48.95
2023-05-15T12:33:56.943Z,48.38
2023-05-15T12:34:56.933Z,48.18
2023-05-15T12:36:00.899Z,48.11
2023-05-15T12:36:56.887Z,48.21
2023-05-15T12:37:56.952Z,48.02
2023-05-15T12:38:56.882Z,47.03
2023-05-15T12:39:56.917Z,46.84
2023-05-15T12:40:56.899Z,47.15
2023-05-15T12:41:56.925Z,47.31
2023-05-15T12:42:56.904Z,46.67
2023-05-15T12:43:56.908Z,46.55
2023-05-15T12:44:56.908Z,46.19
2023-05-15T12:45:57.044Z,46.38
2023-05-15T12:46:56.921Z,46.47
2023-05-15T12:47:57.063Z,46.55
2023-05-15T12:48:56.909Z,46.26
2023-05-15T12:49:56.915Z,46.16
2023-05-15T12:50:56.927Z,46.57
2023-05-15T12:51:56.941Z,46.16
2023-05-15T12:52:56.922Z,46.09
2023-05-15T12:53:56.945Z,46.28
2023-05-15T12:54:56.933Z,46.57
2023-05-15T12:55:56.933Z,46.16
2023-05-15T12:56:57.873Z,46.36
2023-05-15T12:57:56.940Z,46.47
2023-05-15T12:58:56.949Z,45.42
2023-05-15T12:59:56.944Z,45.22
2023-05-15T13:00:57.047Z,45.32
2023-05-15T13:01:57.000Z,44.35
2023-05-15T13:02:57.029Z,44.55
2023-05-15T13:03:57.145Z,44.84
2023-05-15T13:04:56.957Z,44.93
2023-05-15T13:05:56.957Z,44.45
2023-05-15T13:06:56.953Z,44.84
2023-05-15T13:07:56.968Z,44.74
2023-05-15T13:08:56.975Z,44.65
2023-05-15T13:09:56.953Z,44.55
2023-05-15T13:10:56.975Z,44.76
2023-05-15T13:11:56.987Z,45.15